Time,TemperatureF,DewpointF,PressureIn,WindDirection,WindDirectionDegrees,WindSpeedMPH,WindSpeedGustMPH,Humidity,HourlyPrecipIn,Conditions,Clouds,dailyrainin,SoftwareType,DateUTC
2013-11-30 00:05:00,33.5,27.3,30.02,SE,135,2.9,6.7,78,0.00,,,0.00,WUHU216HW,2013-11-30 07:05:00,
2013-11-30 00:15:00,33.5,27.3,30.02,SSE,158,4.0,6.9,78,0.00,,,0.00,WUHU216HW,2013-11-30 07:15:00,
2013-11-30 00:25:00,33.5,27.3,30.02,SSE,158,4.0,6.7,78,0.00,,,0.00,WUHU216HW,2013-11-30 07:25:00,
2013-11-30 00:35:00,33.8,27.3,30.02,WSW,248,0.2,4.0,77,0.00,,,0.00,WUHU216HW,2013-11-30 07:35:00,
2013-11-30 00:45:00,34.2,27.6,30.02,West,270,0.7,0.7,77,0.00,,,0.00,WUHU216HW,2013-11-30 07:45:00,
2013-11-30 00:55:00,34.2,27.6,30.01,SSW,203,1.6,2.2,77,0.00,,,0.00,WUHU216HW,2013-11-30 07:55:00,
2013-11-30 01:05:00,34.2,27.6,30.01,SSW,203,0.0,3.8,77,0.00,,,0.00,WUHU216HW,2013-11-30 08:05:00,
2013-11-30 01:15:00,34.2,27.6,30.01,South,180,2.2,3.6,77,0.00,,,0.00,WUHU216HW,2013-11-30 08:15:00,
2013-11-30 01:25:00,34.2,27.6,30.01,SSE,158,4.5,4.5,77,0.00,,,0.00,WUHU216HW,2013-11-30 08:25:00,
2013-11-30 01:35:00,34.4,27.6,30.02,NNW,338,2.0,4.3,76,0.00,,,0.00,WUHU216HW,2013-11-30 08:35:00,
2013-11-30 01:45:00,34.2,27.4,30.02,NNW,338,0.2,0.7,76,0.00,,,0.00,WUHU216HW,2013-11-30 08:45:00,
2013-11-30 01:55:00,34.2,27.6,30.02,SSW,203,0.9,0.9,77,0.00,,,0.00,WUHU216HW,2013-11-30 08:55:00,
2013-11-30 02:05:00,34.0,27.8,30.03,SSW,203,0.0,0.7,78,0.00,,,0.00,WUHU216HW,2013-11-30 09:05:00,
2013-11-30 02:15:00,34.2,28.0,30.03,SSW,203,0.4,0.7,78,0.00,,,0.00,WUHU216HW,2013-11-30 09:15:00,
2013-11-30 02:25:00,33.8,27.9,30.03,East,90,0.0,2.0,79,0.00,,,0.00,WUHU216HW,2013-11-30 09:25:00,
2013-11-30 02:35:00,33.8,27.9,30.03,North,0,0.2,0.9,79,0.00,,,0.00,WUHU216HW,2013-11-30 09:35:00,
2013-11-30 02:45:00,33.8,28.3,30.03,NNW,338,0.7,0.7,80,0.00,,,0.00,WUHU216HW,2013-11-30 09:45:00,
2013-11-30 02:55:00,33.5,27.6,30.03,North,0,0.0,0.7,79,0.00,,,0.00,WUHU216HW,2013-11-30 09:55:00,
2013-11-30 03:05:00,33.5,27.9,30.03,SSE,158,0.9,1.8,80,0.00,,,0.00,WUHU216HW,2013-11-30 10:05:00,
2013-11-30 03:15:00,33.3,27.8,30.03,SW,225,1.8,2.5,80,0.00,,,0.00,WUHU216HW,2013-11-30 10:15:00,
2013-11-30 03:25:00,33.3,27.8,30.03,North,0,0.4,1.8,80,0.00,,,0.00,WUHU216HW,2013-11-30 10:25:00,
2013-11-30 03:35:00,33.3,27.8,30.03,SE,135,2.2,2.2,80,0.00,,,0.00,WUHU216HW,2013-11-30 10:35:00,
2013-11-30 03:45:00,33.5,27.9,30.03,SSE,158,0.4,1.1,80,0.00,,,0.00,WUHU216HW,2013-11-30 10:45:00,
2013-11-30 03:55:00,33.5,27.9,30.03,WSW,248,0.0,0.9,80,0.00,,,0.00,WUHU216HW,2013-11-30 10:55:00,
2013-11-30 04:05:00,33.7,28.1,30.03,NE,45,0.2,1.1,80,0.00,,,0.00,WUHU216HW,2013-11-30 11:05:00,
2013-11-30 04:15:00,33.5,27.9,30.03,SSE,158,0.2,1.1,80,0.00,,,0.00,WUHU216HW,2013-11-30 11:15:00,
2013-11-30 04:25:00,33.5,27.9,30.03,NNW,338,0.0,0.4,80,0.00,,,0.00,WUHU216HW,2013-11-30 11:25:00,
2013-11-30 04:35:00,33.5,27.9,30.04,North,0,0.0,0.2,80,0.00,,,0.00,WUHU216HW,2013-11-30 11:35:00,
2013-11-30 04:45:00,33.5,27.9,30.03,SSW,203,0.4,1.3,80,0.00,,,0.00,WUHU216HW,2013-11-30 11:45:00,
2013-11-30 04:55:00,33.3,27.8,30.04,SSW,203,0.0,1.3,80,0.00,,,0.00,WUHU216HW,2013-11-30 11:55:00,
2013-11-30 05:05:00,33.5,27.9,30.04,SSW,203,0.0,0.4,80,0.00,,,0.00,WUHU216HW,2013-11-30 12:05:00,
2013-11-30 05:15:00,33.5,27.9,30.04,NE,45,0.9,1.1,80,0.00,,,0.00,WUHU216HW,2013-11-30 12:15:00,
2013-11-30 05:25:00,33.5,28.3,30.03,WSW,248,2.7,2.7,81,0.00,,,0.00,WUHU216HW,2013-11-30 12:25:00,
2013-11-30 05:35:00,33.3,28.1,30.03,ENE,68,0.9,3.1,81,0.00,,,0.00,WUHU216HW,2013-11-30 12:35:00,
2013-11-30 05:45:00,33.3,28.1,30.03,SE,135,0.0,1.3,81,0.00,,,0.00,WUHU216HW,2013-11-30 12:45:00,
2013-11-30 05:55:00,33.3,28.1,30.03,NNW,338,0.4,1.1,81,0.00,,,0.00,WUHU216HW,2013-11-30 12:55:00,
2013-11-30 06:05:00,33.3,28.1,30.03,SSE,158,0.0,1.1,81,0.00,,,0.00,WUHU216HW,2013-11-30 13:05:00,
2013-11-30 06:16:00,33.1,27.9,30.03,North,0,0.0,0.7,81,0.00,,,0.00,WUHU216HW,2013-11-30 13:16:00,
2013-11-30 06:26:00,33.1,27.9,30.03,SSE,158,1.3,1.8,81,0.00,,,0.00,WUHU216HW,2013-11-30 13:26:00,
2013-11-30 06:36:00,33.1,28.2,30.03,SSW,203,1.1,1.8,82,0.00,,,0.00,WUHU216HW,2013-11-30 13:36:00,
2013-11-30 06:46:00,33.3,28.4,30.03,NNW,338,0.0,3.1,82,0.00,,,0.00,WUHU216HW,2013-11-30 13:46:00,
2013-11-30 06:56:00,33.3,28.4,30.03,East,90,0.7,1.8,82,0.00,,,0.00,WUHU216HW,2013-11-30 13:56:00,
2013-11-30 07:06:00,33.1,28.2,30.03,SSW,203,2.5,2.9,82,0.00,,,0.00,WUHU216HW,2013-11-30 14:06:00,
2013-11-30 07:16:00,33.1,27.9,30.03,SSW,203,0.7,3.4,81,0.00,,,0.00,WUHU216HW,2013-11-30 14:16:00,
2013-11-30 07:26:00,33.1,27.9,30.03,North,0,0.7,1.1,81,0.00,,,0.00,WUHU216HW,2013-11-30 14:26:00,
2013-11-30 07:36:00,32.9,27.7,30.03,SSW,203,0.7,3.1,81,0.00,,,0.00,WUHU216HW,2013-11-30 14:36:00,
2013-11-30 07:46:00,32.9,27.7,30.04,SE,135,0.4,1.8,81,0.00,,,0.00,WUHU216HW,2013-11-30 14:46:00,
2013-11-30 07:56:00,32.9,27.7,30.04,ESE,113,0.0,0.4,81,0.00,,,0.00,WUHU216HW,2013-11-30 14:56:00,
2013-11-30 08:06:00,33.1,27.9,30.04,SE,135,0.4,1.1,81,0.00,,,0.00,WUHU216HW,2013-11-30 15:06:00,
2013-11-30 08:16:00,33.3,28.1,30.04,SW,225,1.1,1.1,81,0.00,,,0.00,WUHU216HW,2013-11-30 15:16:00,
2013-11-30 08:26:00,33.5,28.3,30.04,South,180,0.0,1.8,81,0.00,,,0.00,WUHU216HW,2013-11-30 15:26:00,
2013-11-30 08:36:00,33.7,28.4,30.04,ESE,113,0.0,2.9,81,0.00,,,0.00,WUHU216HW,2013-11-30 15:36:00,
2013-11-30 08:46:00,33.8,28.8,30.04,SW,225,1.1,2.5,82,0.00,,,0.00,WUHU216HW,2013-11-30 15:46:00,
2013-11-30 08:56:00,34.0,28.7,30.04,SSE,158,0.4,1.3,81,0.00,,,0.00,WUHU216HW,2013-11-30 15:56:00,
2013-11-30 09:06:00,34.2,28.9,30.04,SSE,158,0.2,2.9,81,0.00,,,0.00,WUHU216HW,2013-11-30 16:06:00,
2013-11-30 09:16:00,34.2,28.9,30.04,WNW,293,1.1,2.5,81,0.00,,,0.00,WUHU216HW,2013-11-30 16:16:00,
2013-11-30 09:26:00,34.6,29.3,30.04,East,90,1.1,1.6,81,0.00,,,0.00,WUHU216HW,2013-11-30 16:26:00,
2013-11-30 09:36:00,34.9,29.6,30.03,ESE,113,0.2,2.7,81,0.00,,,0.00,WUHU216HW,2013-11-30 16:36:00,
2013-11-30 09:46:00,34.9,29.6,30.03,East,90,3.1,3.1,81,0.00,,,0.00,WUHU216HW,2013-11-30 16:46:00,
2013-11-30 09:56:00,34.9,29.3,30.03,WNW,293,4.0,4.7,80,0.00,,,0.00,WUHU216HW,2013-11-30 16:56:00,
2013-11-30 10:06:00,34.9,29.6,30.03,ENE,68,0.7,3.8,81,0.00,,,0.00,WUHU216HW,2013-11-30 17:06:00,
2013-11-30 10:16:00,35.5,30.2,30.03,ESE,113,3.1,3.4,81,0.00,,,0.00,WUHU216HW,2013-11-30 17:16:00,
2013-11-30 10:26:00,35.8,30.2,30.03,West,270,3.8,3.8,80,0.00,,,0.00,WUHU216HW,2013-11-30 17:26:00,
2013-11-30 10:36:00,36.0,30.4,30.03,NNE,23,0.4,2.9,80,0.00,,,0.00,WUHU216HW,2013-11-30 17:36:00,
2013-11-30 10:46:00,36.2,30.6,30.03,NNE,23,1.8,1.8,80,0.00,,,0.00,WUHU216HW,2013-11-30 17:46:00,
2013-11-30 10:56:00,36.0,30.4,30.03,WNW,293,1.8,3.4,80,0.00,,,0.00,WUHU216HW,2013-11-30 17:56:00,
2013-11-30 11:06:00,35.6,30.1,30.04,NNW,338,0.0,2.5,80,0.00,,,0.00,WUHU216HW,2013-11-30 18:06:00,
2013-11-30 11:16:00,35.6,30.1,30.04,NW,315,2.0,2.0,80,0.00,,,0.00,WUHU216HW,2013-11-30 18:16:00,
2013-11-30 11:26:00,35.5,29.9,30.03,NE,45,0.9,1.8,80,0.00,,,0.00,WUHU216HW,2013-11-30 18:26:00,
2013-11-30 11:36:00,35.6,30.1,30.03,East,90,0.0,1.3,80,0.00,,,0.00,WUHU216HW,2013-11-30 18:36:00,
2013-11-30 11:46:00,35.6,30.1,30.03,ENE,68,1.8,1.8,80,0.00,,,0.00,WUHU216HW,2013-11-30 18:46:00,
2013-11-30 11:56:00,35.8,30.2,30.03,East,90,1.6,2.5,80,0.00,,,0.00,WUHU216HW,2013-11-30 18:56:00,
2013-11-30 12:06:00,36.2,30.6,30.02,ENE,68,1.8,5.4,80,0.00,,,0.00,WUHU216HW,2013-11-30 19:06:00,
2013-11-30 12:16:00,36.4,30.8,30.02,NNE,23,1.6,1.8,80,0.00,,,0.00,WUHU216HW,2013-11-30 19:16:00,
2013-11-30 12:26:00,36.5,31.0,30.02,North,0,0.4,1.1,80,0.00,,,0.00,WUHU216HW,2013-11-30 19:26:00,
2013-11-30 12:36:00,36.4,30.8,30.02,North,0,0.7,2.2,80,0.00,,,0.00,WUHU216HW,2013-11-30 19:36:00,
2013-11-30 12:46:00,36.4,30.8,30.02,North,0,1.6,1.6,80,0.00,,,0.00,WUHU216HW,2013-11-30 19:46:00,
2013-11-30 12:56:00,36.4,31.1,30.02,NNE,23,1.8,1.8,81,0.00,,,0.00,WUHU216HW,2013-11-30 19:56:00,
2013-11-30 13:06:00,36.4,31.1,30.01,NE,45,0.0,3.1,81,0.00,,,0.00,WUHU216HW,2013-11-30 20:06:00,
2013-11-30 13:16:00,36.7,31.7,30.01,East,90,1.8,2.2,82,0.00,,,0.00,WUHU216HW,2013-11-30 20:16:00,
2013-11-30 13:26:00,36.7,31.7,30.00,East,90,1.1,1.6,82,0.00,,,0.00,WUHU216HW,2013-11-30 20:26:00,
2013-11-30 13:36:00,37.3,32.2,30.00,NW,315,0.4,4.0,82,0.00,,,0.00,WUHU216HW,2013-11-30 20:36:00,
2013-11-30 13:46:00,37.6,32.3,30.00,WNW,293,0.9,1.8,81,0.00,,,0.00,WUHU216HW,2013-11-30 20:46:00,
2013-11-30 13:57:00,37.4,32.1,30.00,West,270,0.0,3.4,81,0.00,,,0.00,WUHU216HW,2013-11-30 20:57:00,
2013-11-30 14:07:00,37.4,32.1,30.00,East,90,1.1,2.9,81,0.00,,,0.00,WUHU216HW,2013-11-30 21:07:00,
2013-11-30 14:17:00,37.6,32.3,30.00,North,0,1.6,1.8,81,0.00,,,0.00,WUHU216HW,2013-11-30 21:17:00,
2013-11-30 14:27:00,37.8,32.5,30.00,NNE,23,1.8,2.2,81,0.00,,,0.00,WUHU216HW,2013-11-30 21:27:00,
2013-11-30 14:37:00,37.8,32.5,29.99,ESE,113,0.9,2.2,81,0.00,,,0.00,WUHU216HW,2013-11-30 21:37:00,
2013-11-30 14:47:00,38.3,33.0,30.00,NNW,338,1.8,1.8,81,0.00,,,0.00,WUHU216HW,2013-11-30 21:47:00,
2013-11-30 14:57:00,38.2,32.6,30.00,NNW,338,0.0,1.3,80,0.00,,,0.00,WUHU216HW,2013-11-30 21:57:00,
2013-11-30 15:07:00,38.3,33.0,30.00,North,0,0.0,1.3,81,0.00,,,0.00,WUHU216HW,2013-11-30 22:07:00,
2013-11-30 15:17:00,38.3,32.8,30.00,NNW,338,0.4,1.3,80,0.00,,,0.00,WUHU216HW,2013-11-30 22:17:00,
2013-11-30 15:27:00,38.7,33.1,30.00,East,90,2.2,2.5,80,0.00,,,0.00,WUHU216HW,2013-11-30 22:27:00,
2013-11-30 15:37:00,38.7,33.1,30.00,NE,45,2.0,4.3,80,0.00,,,0.00,WUHU216HW,2013-11-30 22:37:00,
2013-11-30 15:47:00,38.9,33.3,30.00,SW,225,0.0,2.2,80,0.00,,,0.00,WUHU216HW,2013-11-30 22:47:00,
2013-11-30 15:57:00,39.1,33.5,30.00,South,180,2.0,2.7,80,0.00,,,0.00,WUHU216HW,2013-11-30 22:57:00,
2013-11-30 16:07:00,38.9,33.3,30.00,NW,315,4.0,4.0,80,0.00,,,0.00,WUHU216HW,2013-11-30 23:07:00,
2013-11-30 16:17:00,38.7,33.1,30.00,East,90,0.9,1.8,80,0.00,,,0.00,WUHU216HW,2013-11-30 23:17:00,
2013-11-30 16:27:00,38.5,32.9,30.00,ENE,68,0.7,2.5,80,0.00,,,0.00,WUHU216HW,2013-11-30 23:27:00,
2013-11-30 16:37:00,38.5,32.9,30.00,South,180,0.2,0.9,80,0.00,,,0.00,WUHU216HW,2013-11-30 23:37:00,
2013-11-30 16:47:00,38.7,33.1,30.00,ESE,113,1.1,3.6,80,0.00,,,0.00,WUHU216HW,2013-11-30 23:47:00,
2013-11-30 16:57:00,38.9,33.3,30.01,ESE,113,2.0,4.0,80,0.00,,,0.00,WUHU216HW,2013-11-30 23:57:00,
2013-11-30 17:07:00,38.7,33.1,30.01,ESE,113,0.0,2.2,80,0.00,,,0.00,WUHU216HW,2013-12-01 00:07:00,
2013-11-30 17:17:00,38.7,33.1,30.01,SW,225,4.0,4.7,80,0.00,,,0.00,WUHU216HW,2013-12-01 00:17:00,
2013-11-30 17:27:00,38.9,32.9,30.02,WSW,248,0.4,4.5,79,0.00,,,0.00,WUHU216HW,2013-12-01 00:27:00,
2013-11-30 17:37:00,38.9,32.9,30.02,WNW,293,1.6,2.9,79,0.00,,,0.00,WUHU216HW,2013-12-01 00:37:00,
2013-11-30 17:47:00,38.9,32.9,30.02,NE,45,0.0,2.0,79,0.00,,,0.00,WUHU216HW,2013-12-01 00:47:00,
2013-11-30 17:57:00,39.2,33.3,30.02,SE,135,1.1,1.6,79,0.00,,,0.00,WUHU216HW,2013-12-01 00:57:00,
2013-11-30 18:07:00,39.6,33.7,30.02,West,270,2.2,2.2,79,0.00,,,0.00,WUHU216HW,2013-12-01 01:07:00,
2013-11-30 18:17:00,40.5,33.9,30.02,WSW,248,1.6,2.5,77,0.00,,,0.00,WUHU216HW,2013-12-01 01:17:00,
2013-11-30 18:27:00,41.0,34.0,30.02,WNW,293,3.1,3.1,76,0.00,,,0.00,WUHU216HW,2013-12-01 01:27:00,
2013-11-30 18:37:00,41.4,33.7,30.02,NE,45,1.1,8.9,74,0.00,,,0.00,WUHU216HW,2013-12-01 01:37:00,
2013-11-30 18:47:00,40.1,33.1,30.02,NE,45,1.8,2.5,76,0.00,,,0.00,WUHU216HW,2013-12-01 01:47:00,
2013-11-30 18:57:00,39.2,32.7,30.02,West,270,1.1,3.1,77,0.00,,,0.00,WUHU216HW,2013-12-01 01:57:00,
2013-11-30 19:07:00,39.1,32.5,30.02,NNE,23,0.0,1.3,77,0.00,,,0.00,WUHU216HW,2013-12-01 02:07:00,
2013-11-30 19:17:00,39.1,32.8,30.02,WSW,248,0.9,1.6,78,0.00,,,0.00,WUHU216HW,2013-12-01 02:17:00,
2013-11-30 19:27:00,39.6,32.9,30.02,SSW,203,0.7,1.6,77,0.00,,,0.00,WUHU216HW,2013-12-01 02:27:00,
2013-11-30 19:37:00,40.7,33.7,30.02,WNW,293,4.0,4.7,76,0.00,,,0.00,WUHU216HW,2013-12-01 02:37:00,
2013-11-30 19:47:00,41.4,34.0,30.01,SW,225,1.3,3.4,75,0.00,,,0.00,WUHU216HW,2013-12-01 02:47:00,
2013-11-30 19:57:00,41.6,33.8,30.01,WSW,248,1.1,3.6,74,0.00,,,0.00,WUHU216HW,2013-12-01 02:57:00,
2013-11-30 20:07:00,41.8,34.0,30.01,NNW,338,0.4,2.2,74,0.00,,,0.00,WUHU216HW,2013-12-01 03:07:00,
2013-11-30 20:17:00,41.9,33.9,30.01,North,0,0.2,4.7,73,0.00,,,0.00,WUHU216HW,2013-12-01 03:17:00,
2013-11-30 20:27:00,41.9,33.9,30.00,SSE,158,0.4,1.8,73,0.00,,,0.00,WUHU216HW,2013-12-01 03:27:00,
2013-11-30 20:37:00,41.8,33.8,30.00,WNW,293,2.2,2.2,73,0.00,,,0.00,WUHU216HW,2013-12-01 03:37:00,
2013-11-30 20:47:00,41.0,33.0,30.00,West,270,0.4,1.8,73,0.00,,,0.00,WUHU216HW,2013-12-01 03:47:00,
2013-11-30 20:57:00,40.7,33.0,30.00,East,90,0.2,2.7,74,0.00,,,0.00,WUHU216HW,2013-12-01 03:57:00,
2013-11-30 21:07:00,40.7,33.0,30.00,ESE,113,1.3,1.6,74,0.00,,,0.00,WUHU216HW,2013-12-01 04:07:00,
2013-11-30 21:17:00,40.7,33.0,30.00,West,270,0.7,2.5,74,0.00,,,0.00,WUHU216HW,2013-12-01 04:17:00,
2013-11-30 21:27:00,40.3,32.7,30.00,West,270,0.7,3.1,74,0.00,,,0.00,WUHU216HW,2013-12-01 04:27:00,
2013-11-30 21:38:00,40.0,32.7,30.00,SW,225,1.1,1.8,75,0.00,,,0.00,WUHU216HW,2013-12-01 04:38:00,
2013-11-30 21:48:00,40.0,32.7,30.00,WSW,248,2.5,2.5,75,0.00,,,0.00,WUHU216HW,2013-12-01 04:48:00,
2013-11-30 21:58:00,39.2,32.0,30.00,NW,315,0.4,2.9,75,0.00,,,0.00,WUHU216HW,2013-12-01 04:58:00,
2013-11-30 22:08:00,39.2,32.3,29.99,East,90,0.0,1.1,76,0.00,,,0.00,WUHU216HW,2013-12-01 05:08:00,
2013-11-30 22:18:00,39.2,32.3,29.99,SW,225,0.9,2.5,76,0.00,,,0.00,WUHU216HW,2013-12-01 05:18:00,
2013-11-30 22:28:00,39.2,32.7,29.99,SE,135,1.8,1.8,77,0.00,,,0.00,WUHU216HW,2013-12-01 05:28:00,
2013-11-30 22:38:00,39.2,32.7,29.99,SSW,203,0.0,1.3,77,0.00,,,0.00,WUHU216HW,2013-12-01 05:38:00,
2013-11-30 22:48:00,39.2,32.7,29.99,WSW,248,0.4,1.8,77,0.00,,,0.00,WUHU216HW,2013-12-01 05:48:00,
2013-11-30 22:58:00,39.2,32.7,29.99,SSW,203,0.9,1.1,77,0.00,,,0.00,WUHU216HW,2013-12-01 05:58:00,
2013-11-30 23:08:00,39.2,32.7,29.99,SSW,203,2.5,2.5,77,0.00,,,0.00,WUHU216HW,2013-12-01 06:08:00,
2013-11-30 23:18:00,39.1,32.5,29.99,South,180,2.7,2.9,77,0.00,,,0.00,WUHU216HW,2013-12-01 06:18:00,
2013-11-30 23:28:00,39.1,32.5,29.99,SSW,203,2.9,2.9,77,0.00,,,0.00,WUHU216HW,2013-12-01 06:28:00,
2013-11-30 23:38:00,38.9,32.3,29.98,WSW,248,1.1,3.4,77,0.00,,,0.00,WUHU216HW,2013-12-01 06:38:00,
2013-11-30 23:48:00,38.7,32.1,29.97,SE,135,1.8,2.9,77,0.00,,,0.00,WUHU216HW,2013-12-01 06:48:00,
2013-11-30 23:58:00,38.5,32.3,29.97,SSE,158,0.0,2.2,78,0.00,,,0.00,WUHU216HW,2013-12-01 06:58:00,